createdAt,value
2023-04-11T00:01:16.071Z,7.51
2023-04-11T00:02:48.265Z,7.54
2023-04-11T00:04:21.145Z,7.66
2023-04-11T00:05:53.052Z,7.73
2023-04-11T00:07:24.898Z,7.81
2023-04-11T00:08:57.094Z,7.91
2023-04-11T00:10:29.255Z,7.95
2023-04-11T00:12:02.378Z,7.98
2023-04-11T00:13:34.474Z,8.07
2023-04-11T00:15:08.248Z,8.14
2023-04-11T00:16:41.726Z,8.21
2023-04-11T00:18:13.543Z,8.23
2023-04-11T00:19:48.840Z,8.29
2023-04-11T00:21:20.640Z,8.40
2023-04-11T00:22:54.247Z,8.51
2023-04-11T00:24:26.706Z,8.51
2023-04-11T00:25:58.749Z,8.59
2023-04-11T00:27:30.565Z,8.66
2023-04-11T00:29:02.489Z,8.67
2023-04-11T00:30:34.273Z,8.81
2023-04-11T00:32:06.502Z,8.90
2023-04-11T00:33:39.913Z,8.98
2023-04-11T00:35:12.733Z,9.00
2023-04-11T00:36:44.747Z,9.09
2023-04-11T00:38:16.942Z,9.08
2023-04-11T00:39:53.277Z,9.14
2023-04-11T00:41:25.272Z,9.21
2023-04-11T00:42:57.249Z,9.26
2023-04-11T00:44:29.055Z,9.29
2023-04-11T00:46:01.403Z,9.34
2023-04-11T00:47:34.347Z,9.35
2023-04-11T00:49:06.414Z,9.39
2023-04-11T00:50:42.439Z,9.38
2023-04-11T00:52:14.405Z,9.40
2023-04-11T00:53:46.468Z,9.39
2023-04-11T00:55:18.295Z,9.41
2023-04-11T00:56:51.357Z,9.43
2023-04-11T00:58:23.325Z,9.45
2023-04-11T00:59:56.070Z,9.47
2023-04-11T01:01:30.350Z,9.48
2023-04-11T01:03:02.877Z,9.52
2023-04-11T01:04:35.158Z,9.53
2023-04-11T01:06:13.336Z,9.51
2023-04-11T01:07:48.913Z,9.53
2023-04-11T01:09:23.522Z,9.56
2023-04-11T01:10:55.441Z,9.53
2023-04-11T01:12:27.793Z,9.57
2023-04-11T01:14:00.052Z,9.54
2023-04-11T01:15:32.001Z,9.58
2023-04-11T01:17:04.119Z,9.58
2023-04-11T01:18:36.719Z,9.61
2023-04-11T01:20:10.165Z,9.61
2023-04-11T01:21:42.261Z,9.62
2023-04-11T01:23:15.106Z,9.63
2023-04-11T01:24:47.197Z,9.64
2023-04-11T01:26:19.067Z,9.66
2023-04-11T01:27:51.110Z,9.65
2023-04-11T01:29:23.173Z,9.66
2023-04-11T01:30:55.069Z,9.67
2023-04-11T01:32:27.066Z,9.70
2023-04-11T01:34:00.843Z,9.71
2023-04-11T01:35:32.884Z,9.69
2023-04-11T01:37:04.717Z,9.69
2023-04-11T01:38:36.586Z,9.72
2023-04-11T01:40:08.970Z,9.72
2023-04-11T01:41:42.234Z,9.73
2023-04-11T01:43:14.353Z,9.72
2023-04-11T01:44:48.578Z,9.71
2023-04-11T01:46:21.468Z,9.75
2023-04-11T01:47:54.769Z,9.76
2023-04-11T01:49:26.787Z,9.80
2023-04-11T01:50:58.630Z,9.82
2023-04-11T01:52:30.502Z,9.83
2023-04-11T01:54:02.322Z,9.85
2023-04-11T01:55:34.152Z,9.81
2023-04-11T01:57:06.746Z,9.81
2023-04-11T01:58:38.573Z,9.85
2023-04-11T02:00:11.233Z,9.83
2023-04-11T02:01:50.619Z,9.84
2023-04-11T02:03:22.840Z,9.85
2023-04-11T02:04:54.971Z,9.83
2023-04-11T02:06:27.893Z,9.84
2023-04-11T02:07:59.683Z,9.85
2023-04-11T02:09:31.535Z,9.86
2023-04-11T02:11:04.267Z,9.87
2023-04-11T02:12:36.058Z,9.88
2023-04-11T02:14:10.029Z,9.88
2023-04-11T02:15:41.983Z,9.90
2023-04-11T02:17:14.321Z,9.87
2023-04-11T02:18:46.551Z,9.88
2023-04-11T02:20:18.474Z,9.85
2023-04-11T02:21:50.500Z,9.84
2023-04-11T02:23:23.567Z,9.83
2023-04-11T02:24:56.660Z,9.83
2023-04-11T02:26:28.754Z,9.80
2023-04-11T02:28:01.112Z,9.78
2023-04-11T02:29:33.153Z,9.76
2023-04-11T02:31:05.128Z,9.76
2023-04-11T02:32:38.054Z,9.77
2023-04-11T02:34:09.935Z,9.79
2023-04-11T02:35:42.993Z,9.79
2023-04-11T02:37:14.859Z,9.78
2023-04-11T02:38:46.659Z,9.82
2023-04-11T02:40:18.519Z,9.82
2023-04-11T02:41:51.378Z,9.78
2023-04-11T02:43:23.179Z,9.80
2023-04-11T02:44:55.932Z,9.83
2023-04-11T02:46:32.297Z,9.84
2023-04-11T02:48:05.379Z,9.83
2023-04-11T02:49:44.181Z,9.85
2023-04-11T02:51:19.198Z,9.86
2023-04-11T02:52:51.175Z,9.88
2023-04-11T02:54:26.675Z,9.88
2023-04-11T02:55:59.878Z,9.89
2023-04-11T02:57:31.694Z,9.91
2023-04-11T02:59:03.668Z,9.91
2023-04-11T03:00:37.888Z,9.89
2023-04-11T03:02:12.517Z,9.87
2023-04-11T03:03:44.946Z,9.88
2023-04-11T03:05:19.324Z,9.86
2023-04-11T03:06:54.289Z,9.86
2023-04-11T03:08:26.231Z,9.86
2023-04-11T03:10:00.179Z,9.82
2023-04-11T03:11:32.007Z,9.81
2023-04-11T03:13:03.989Z,9.81
2023-04-11T03:14:35.849Z,9.80
2023-04-11T03:16:08.292Z,9.81
2023-04-11T03:17:40.261Z,9.82
2023-04-11T03:19:14.165Z,9.81
2023-04-11T03:20:46.013Z,9.82
2023-04-11T03:22:20.077Z,9.83
2023-04-11T03:23:53.439Z,9.86
2023-04-11T03:25:25.477Z,9.88
2023-04-11T03:26:58.577Z,9.86
2023-04-11T03:28:30.669Z,9.91
2023-04-11T03:30:02.657Z,9.92
2023-04-11T03:31:44.253Z,9.95
2023-04-11T03:33:17.202Z,9.96
2023-04-11T03:34:51.073Z,9.99
2023-04-11T03:36:23.314Z,9.98
2023-04-11T03:37:55.100Z,10.00
2023-04-11T03:39:26.941Z,10.00
2023-04-11T03:40:58.836Z,10.02
2023-04-11T03:42:31.429Z,10.03
2023-04-11T03:44:05.399Z,10.06
2023-04-11T03:45:37.277Z,10.06
2023-04-11T03:47:12.370Z,10.06
2023-04-11T03:48:47.805Z,10.06
2023-04-11T03:50:21.228Z,10.05
2023-04-11T03:51:56.494Z,10.06
2023-04-11T03:53:29.632Z,10.06
2023-04-11T03:55:07.384Z,10.03
2023-04-11T03:56:39.429Z,10.04
2023-04-11T03:58:14.210Z,10.03
2023-04-11T03:59:50.834Z,10.00
2023-04-11T04:01:22.679Z,10.00
2023-04-11T04:02:57.159Z,9.99
2023-04-11T04:04:29.290Z,9.98
2023-04-11T04:06:24.384Z,9.96
2023-04-11T04:07:56.248Z,9.94
2023-04-11T04:09:42.882Z,9.93
2023-04-11T04:11:15.423Z,9.93
2023-04-11T04:12:48.279Z,9.91
2023-04-11T04:14:24.061Z,9.88
2023-04-11T04:15:58.395Z,9.86
2023-04-11T04:17:32.263Z,9.86
2023-04-11T04:19:04.947Z,9.85
2023-04-11T04:20:37.330Z,9.82
2023-04-11T04:22:12.136Z,9.82
2023-04-11T04:23:48.992Z,9.82
2023-04-11T04:25:20.842Z,9.81
2023-04-11T04:26:58.017Z,9.79
2023-04-11T04:28:47.571Z,9.76
2023-04-11T04:30:29.028Z,9.74
2023-04-11T04:32:11.864Z,9.73
2023-04-11T04:33:49.730Z,9.69
2023-04-11T04:35:28.955Z,9.66
2023-04-11T04:37:02.776Z,9.63
2023-04-11T04:38:44.342Z,9.60
2023-04-11T04:40:20.830Z,9.54
2023-04-11T04:42:04.432Z,9.47
2023-04-11T04:43:42.841Z,9.45
2023-04-11T04:45:32.912Z,9.38
2023-04-11T04:47:05.213Z,9.31
2023-04-11T04:48:37.260Z,9.25
2023-04-11T04:50:09.485Z,9.19
2023-04-11T04:51:41.302Z,9.11
2023-04-11T04:53:13.713Z,9.05
2023-04-11T04:54:51.198Z,8.99
2023-04-11T04:56:23.720Z,8.91
2023-04-11T04:57:57.554Z,8.85
2023-04-11T04:59:30.220Z,8.79
2023-04-11T05:01:11.508Z,8.72
2023-04-11T05:02:43.775Z,8.69
2023-04-11T05:04:16.211Z,8.63
2023-04-11T05:05:53.762Z,8.56
2023-04-11T05:07:26.679Z,8.51
2023-04-11T05:09:00.992Z,8.47
2023-04-11T05:10:32.932Z,8.45
2023-04-11T05:12:06.698Z,8.42
2023-04-11T05:13:43.075Z,8.38
2023-04-11T05:15:15.389Z,8.34
2023-04-11T05:16:47.675Z,8.33
2023-04-11T05:18:19.600Z,8.31
2023-04-11T05:19:51.697Z,8.30
2023-04-11T05:21:24.618Z,8.27
2023-04-11T05:22:57.641Z,8.27
2023-04-11T05:24:29.703Z,8.24
2023-04-11T05:26:03.517Z,8.25
2023-04-11T05:27:36.869Z,8.23
2023-04-11T05:29:09.182Z,8.23
2023-04-11T05:30:41.009Z,8.25
2023-04-11T05:32:12.836Z,8.27
2023-04-11T05:33:45.065Z,8.25
2023-04-11T05:35:17.504Z,8.26
2023-04-11T05:36:53.184Z,8.29
2023-04-11T05:38:25.746Z,8.27
2023-04-11T05:39:57.707Z,8.31
2023-04-11T05:41:29.623Z,8.33
2023-04-11T05:43:01.400Z,8.33
2023-04-11T05:44:33.163Z,8.37
2023-04-11T05:46:05.292Z,8.36
2023-04-11T05:47:37.183Z,8.37
2023-04-11T05:49:09.056Z,8.39
2023-04-11T05:50:41.415Z,8.40
2023-04-11T05:52:13.204Z,8.41
2023-04-11T05:53:45.093Z,8.45
2023-04-11T05:55:17.298Z,8.45
2023-04-11T05:56:49.073Z,8.45
2023-04-11T05:58:21.164Z,8.44
2023-04-11T05:59:53.267Z,8.43
2023-04-11T06:01:26.361Z,8.44
2023-04-11T06:03:00.467Z,8.48
2023-04-11T06:04:32.861Z,8.48
2023-04-11T06:06:05.032Z,8.50
2023-04-11T06:07:37.448Z,8.49
2023-04-11T06:09:10.984Z,8.50
2023-04-11T06:10:43.033Z,8.53
2023-04-11T06:12:14.822Z,8.54
2023-04-11T06:13:46.714Z,8.56
2023-04-11T06:15:18.712Z,8.59
2023-04-11T06:16:50.565Z,8.60
2023-04-11T06:18:22.339Z,8.59
2023-04-11T06:19:54.239Z,8.62
2023-04-11T06:21:26.431Z,8.63
2023-04-11T06:22:59.456Z,8.63
2023-04-11T06:24:38.590Z,8.63
2023-04-11T06:26:11.457Z,8.67
2023-04-11T06:27:43.440Z,8.69
2023-04-11T06:29:15.471Z,8.70
2023-04-11T06:30:47.278Z,8.71
2023-04-11T06:32:19.080Z,8.73
2023-04-11T06:33:51.066Z,8.72
2023-04-11T06:35:25.197Z,8.75
2023-04-11T06:36:56.986Z,8.76
2023-04-11T06:38:28.749Z,8.77
2023-04-11T06:40:00.974Z,8.79
2023-04-11T06:41:32.760Z,8.80
2023-04-11T06:43:04.912Z,8.81
2023-04-11T06:44:36.864Z,8.82
2023-04-11T06:46:08.729Z,8.83
2023-04-11T06:47:40.916Z,8.87
2023-04-11T06:49:12.757Z,8.87
2023-04-11T06:50:46.093Z,8.89
2023-04-11T06:52:17.876Z,8.89
2023-04-11T06:53:49.714Z,8.90
2023-04-11T06:55:23.168Z,8.91
2023-04-11T06:56:57.385Z,8.91
2023-04-11T06:58:29.212Z,8.92
2023-04-11T07:00:01.122Z,8.92
2023-04-11T07:01:38.026Z,8.91
2023-04-11T07:03:10.083Z,8.91
2023-04-11T07:04:42.704Z,8.90
2023-04-11T07:06:14.668Z,8.91
2023-04-11T07:07:46.731Z,8.90
2023-04-11T07:09:18.807Z,8.89
2023-04-11T07:10:50.918Z,8.89
2023-04-11T07:12:22.709Z,8.89
2023-04-11T07:14:00.049Z,8.88
2023-04-11T07:15:31.859Z,8.89
2023-04-11T07:17:03.633Z,8.90
2023-04-11T07:18:35.530Z,8.91
2023-04-11T07:20:11.419Z,8.93
2023-04-11T07:21:43.214Z,8.93
2023-04-11T07:23:15.077Z,8.96
2023-04-11T07:24:51.141Z,8.97
2023-04-11T07:26:24.047Z,8.99
2023-04-11T07:27:55.875Z,9.02
2023-04-11T07:29:28.797Z,9.05
2023-04-11T07:31:00.855Z,9.08
2023-04-11T07:32:32.649Z,9.10
2023-04-11T07:34:04.524Z,9.11
2023-04-11T07:35:36.377Z,9.15
2023-04-11T07:37:08.185Z,9.20
2023-04-11T07:38:40.016Z,9.21
2023-04-11T07:40:14.448Z,9.24
2023-04-11T07:41:46.339Z,9.26
2023-04-11T07:43:18.172Z,9.29
2023-04-11T07:44:50.042Z,9.31
2023-04-11T07:46:21.849Z,9.33
2023-04-11T07:47:53.665Z,9.35
2023-04-11T07:49:25.471Z,9.39
2023-04-11T07:50:57.290Z,9.40
2023-04-11T07:52:29.062Z,9.43
2023-04-11T07:54:01.250Z,9.46
2023-04-11T07:55:33.016Z,9.48
2023-04-11T07:57:04.832Z,9.52
2023-04-11T07:58:36.625Z,9.54
2023-04-11T08:00:11.671Z,9.57
2023-04-11T08:01:43.943Z,9.59
2023-04-11T08:03:17.172Z,9.61
2023-04-11T08:04:49.447Z,9.63
2023-04-11T08:06:21.409Z,9.65
2023-04-11T08:07:53.215Z,9.65
2023-04-11T08:09:25.539Z,9.69
2023-04-11T08:10:57.325Z,9.70
2023-04-11T08:12:29.122Z,9.72
2023-04-11T08:14:01.013Z,9.77
2023-04-11T08:15:32.858Z,9.80
2023-04-11T08:17:08.264Z,9.85
2023-04-11T08:18:46.651Z,9.93
2023-04-11T08:20:19.139Z,9.98
2023-04-11T08:21:52.853Z,10.04
2023-04-11T08:23:24.946Z,10.09
2023-04-11T08:24:56.850Z,10.13
2023-04-11T08:26:28.706Z,10.17
2023-04-11T08:28:00.722Z,10.22
2023-04-11T08:29:32.548Z,10.25
2023-04-11T08:31:05.638Z,10.27
2023-04-11T08:32:38.414Z,10.29
2023-04-11T08:34:10.942Z,10.30
2023-04-11T08:35:43.333Z,10.31
2023-04-11T08:37:15.161Z,10.32
2023-04-11T08:38:47.116Z,10.34
2023-04-11T08:40:18.903Z,10.35
2023-04-11T08:41:51.538Z,10.35
2023-04-11T08:43:23.958Z,10.37
2023-04-11T08:44:57.508Z,10.38
2023-04-11T08:46:32.558Z,10.39
2023-04-11T08:48:05.728Z,10.42
2023-04-11T08:49:37.666Z,10.41
2023-04-11T08:51:09.461Z,10.40
2023-04-11T08:52:45.098Z,10.40
2023-04-11T08:54:17.267Z,10.39
2023-04-11T08:55:49.374Z,10.39
2023-04-11T08:57:27.781Z,10.39
2023-04-11T08:58:59.816Z,10.38
2023-04-11T09:00:32.720Z,10.40
2023-04-11T09:02:09.654Z,10.41
2023-04-11T09:03:53.806Z,10.43
2023-04-11T09:05:36.379Z,10.51
2023-04-11T09:07:08.449Z,10.55
2023-04-11T09:08:40.467Z,10.57
2023-04-11T09:10:22.148Z,10.60
2023-04-11T09:11:54.931Z,10.64
2023-04-11T09:13:28.069Z,10.69
2023-04-11T09:15:17.779Z,10.68
2023-04-11T09:16:55.983Z,10.74
2023-04-11T09:18:38.673Z,10.78
2023-04-11T09:20:18.126Z,10.79
2023-04-11T09:21:50.694Z,10.82
2023-04-11T09:23:25.420Z,10.84
2023-04-11T09:25:03.548Z,10.87
2023-04-11T09:26:35.417Z,10.93
2023-04-11T09:28:09.529Z,11.00
2023-04-11T09:29:43.310Z,11.04
2023-04-11T09:31:15.148Z,11.15
2023-04-11T09:32:48.872Z,11.24
2023-04-11T09:34:24.068Z,11.33
2023-04-11T09:35:57.088Z,11.43
2023-04-11T09:37:54.932Z,11.53
2023-04-11T09:39:29.539Z,11.67
2023-04-11T09:41:03.297Z,11.76
2023-04-11T09:42:35.667Z,11.85
2023-04-11T09:44:07.551Z,11.94
2023-04-11T09:45:47.991Z,12.03
2023-04-11T09:47:24.096Z,12.17
2023-04-11T09:48:56.835Z,12.26
2023-04-11T09:50:28.850Z,12.37
2023-04-11T09:52:01.363Z,12.49
2023-04-11T09:53:37.351Z,12.58
2023-04-11T09:55:11.948Z,12.70
2023-04-11T09:56:44.178Z,12.83
2023-04-11T09:58:16.117Z,12.95
2023-04-11T09:59:48.801Z,13.04
2023-04-11T10:01:21.185Z,13.14
2023-04-11T10:02:53.822Z,13.22
2023-04-11T10:04:28.268Z,13.30
2023-04-11T10:06:04.136Z,13.36
2023-04-11T10:08:08.707Z,13.38
2023-04-11T10:09:43.360Z,13.46
2023-04-11T10:11:15.487Z,13.50
2023-04-11T10:12:47.672Z,13.52
2023-04-11T10:14:37.550Z,13.52
2023-04-11T10:16:20.524Z,13.55
2023-04-11T10:18:12.615Z,13.57
2023-04-11T10:19:45.394Z,13.62
2023-04-11T10:21:29.276Z,13.65
2023-04-11T10:23:01.974Z,13.73
2023-04-11T10:24:33.853Z,13.83
2023-04-11T10:26:08.709Z,13.94
2023-04-11T10:27:53.730Z,14.06
2023-04-11T10:29:28.291Z,14.27
2023-04-11T10:31:04.680Z,14.45
2023-04-11T10:32:36.958Z,14.68
2023-04-11T10:34:17.037Z,14.89
2023-04-11T10:36:06.628Z,15.12
2023-04-11T10:37:38.554Z,15.36
2023-04-11T10:39:10.390Z,15.60
2023-04-11T10:41:21.628Z,15.86
2023-04-11T10:42:53.624Z,16.11
2023-04-11T10:44:25.506Z,16.27
2023-04-11T10:46:17.879Z,16.36
2023-04-11T10:47:58.932Z,16.44
2023-04-11T10:49:38.889Z,16.42
2023-04-11T10:51:31.673Z,16.28
2023-04-11T10:53:09.686Z,16.08
2023-04-11T10:54:41.671Z,15.70
2023-04-11T10:56:15.544Z,15.19
2023-04-11T10:58:10.874Z,14.48
2023-04-11T10:59:42.579Z,13.94
2023-04-11T11:01:26.122Z,13.35
2023-04-11T11:03:15.748Z,12.63
2023-04-11T11:04:48.962Z,12.13
2023-04-11T11:06:21.538Z,11.65
2023-04-11T11:07:54.132Z,11.21
2023-04-11T11:09:28.613Z,10.84
2023-04-11T11:11:02.020Z,10.53
2023-04-11T11:12:34.058Z,10.26
2023-04-11T11:14:05.949Z,10.04
2023-04-11T11:15:38.047Z,9.86
2023-04-11T11:17:11.985Z,9.74
2023-04-11T11:18:55.203Z,9.66
2023-04-11T11:20:27.062Z,9.65
2023-04-11T11:22:03.985Z,9.67
2023-04-11T11:23:36.496Z,9.72
2023-04-11T11:25:09.219Z,9.82
2023-04-11T11:26:43.293Z,9.96
2023-04-11T11:28:15.104Z,10.06
2023-04-11T11:29:46.972Z,10.09
2023-04-11T11:31:18.836Z,10.11
2023-04-11T11:32:50.922Z,10.04
2023-04-11T11:34:31.097Z,9.94
2023-04-11T11:36:05.089Z,9.76
2023-04-11T11:37:36.868Z,9.55
2023-04-11T11:39:10.562Z,9.36
2023-04-11T11:40:42.491Z,9.12
2023-04-11T11:42:14.914Z,8.90
2023-04-11T11:43:47.254Z,8.70
2023-04-11T11:45:21.939Z,8.48
2023-04-11T11:47:12.901Z,8.27
2023-04-11T11:48:59.374Z,8.04
2023-04-11T11:50:32.939Z,7.92
2023-04-11T11:52:04.747Z,7.78
2023-04-11T11:53:37.111Z,7.69
2023-04-11T11:55:17.959Z,7.58
2023-04-11T11:56:54.694Z,7.57
2023-04-11T11:58:26.689Z,7.56
2023-04-11T12:00:01.481Z,7.57
2023-04-11T12:01:36.782Z,7.61
2023-04-11T12:03:12.590Z,7.68
2023-04-11T12:04:44.780Z,7.76
2023-04-11T12:06:17.565Z,7.86
2023-04-11T12:07:54.929Z,8.00
2023-04-11T12:09:32.009Z,8.16
2023-04-11T12:11:12.385Z,8.32
2023-04-11T12:12:53.066Z,8.51
2023-04-11T12:14:25.877Z,8.68
2023-04-11T12:16:01.551Z,8.86
2023-04-11T12:17:38.061Z,9.06
2023-04-11T12:19:09.980Z,9.27
2023-04-11T12:20:41.832Z,9.46
2023-04-11T12:22:13.830Z,9.67
2023-04-11T12:23:45.580Z,9.87
2023-04-11T12:25:17.428Z,10.07
2023-04-11T12:27:05.439Z,10.29
2023-04-11T12:28:38.557Z,10.54
2023-04-11T12:30:12.589Z,10.72
2023-04-11T12:31:45.976Z,10.87
2023-04-11T12:33:18.018Z,11.02
2023-04-11T12:34:49.882Z,11.17
2023-04-11T12:36:22.140Z,11.26
2023-04-11T12:37:53.913Z,11.31
2023-04-11T12:39:26.036Z,11.38
2023-04-11T12:41:14.372Z,11.43
2023-04-11T12:42:56.885Z,11.54
2023-04-11T12:44:30.837Z,11.62
2023-04-11T12:46:02.801Z,11.71
2023-04-11T12:47:35.661Z,11.76
2023-04-11T12:49:07.465Z,11.82
2023-04-11T12:50:39.269Z,11.87
2023-04-11T12:52:11.078Z,11.91
2023-04-11T12:53:42.934Z,11.97
2023-04-11T12:55:14.777Z,12.00
2023-04-11T12:56:46.575Z,12.02
2023-04-11T12:58:18.739Z,12.02
2023-04-11T12:59:51.384Z,12.03
2023-04-11T13:01:23.760Z,12.02
2023-04-11T13:02:56.645Z,12.03
2023-04-11T13:04:28.888Z,12.01
2023-04-11T13:06:00.881Z,12.02
2023-04-11T13:07:39.242Z,12.01
2023-04-11T13:09:11.817Z,12.00
2023-04-11T13:10:43.627Z,12.00
2023-04-11T13:12:15.486Z,11.99
2023-04-11T13:13:47.326Z,11.99
2023-04-11T13:15:19.173Z,11.98
2023-04-11T13:16:51.071Z,11.98
2023-04-11T13:18:23.180Z,11.97
2023-04-11T13:19:55.035Z,11.95
2023-04-11T13:21:26.971Z,11.97
2023-04-11T13:22:58.774Z,11.96
2023-04-11T13:24:32.221Z,11.96
2023-04-11T13:26:04.198Z,11.97
2023-04-11T13:27:36.442Z,12.00
2023-04-11T13:29:08.294Z,12.05
2023-04-11T13:30:41.230Z,12.08
2023-04-11T13:32:13.023Z,12.17
2023-04-11T13:33:45.737Z,12.27
2023-04-11T13:35:17.550Z,12.37
2023-04-11T13:36:49.460Z,12.45
2023-04-11T13:38:22.096Z,12.51
2023-04-11T13:39:53.931Z,12.54
2023-04-11T13:41:25.772Z,12.55
2023-04-11T13:42:57.621Z,12.52
2023-04-11T13:44:29.584Z,12.47
2023-04-11T13:46:01.432Z,12.43
2023-04-11T13:47:35.487Z,12.38
2023-04-11T13:49:08.661Z,12.33
2023-04-11T13:50:40.793Z,12.28
2023-04-11T13:52:12.589Z,12.20
2023-04-11T13:53:44.399Z,12.10
2023-04-11T13:55:16.398Z,11.98
2023-04-11T13:56:48.192Z,11.87
2023-04-11T13:58:20.051Z,11.74
2023-04-11T13:59:51.830Z,11.65
2023-04-11T14:01:23.985Z,11.56
2023-04-11T14:02:56.053Z,11.46
2023-04-11T14:04:27.970Z,11.40
2023-04-11T14:06:00.564Z,11.36
2023-04-11T14:07:32.373Z,11.34
2023-04-11T14:09:05.706Z,11.38
2023-04-11T14:10:37.585Z,11.46
2023-04-11T14:12:09.402Z,11.61
2023-04-11T14:13:41.253Z,11.85
2023-04-11T14:15:13.028Z,12.08
2023-04-11T14:16:44.865Z,12.38
2023-04-11T14:18:16.714Z,12.71
2023-04-11T14:19:48.490Z,13.01
2023-04-11T14:21:21.257Z,13.29
2023-04-11T14:22:53.097Z,13.54
2023-04-11T14:24:25.221Z,13.77
2023-04-11T14:25:57.144Z,14.00
2023-04-11T14:27:29.429Z,14.25
2023-04-11T14:29:01.443Z,14.42
2023-04-11T14:30:33.433Z,14.56
2023-04-11T14:32:07.096Z,14.66
2023-04-11T14:33:39.004Z,14.65
2023-04-11T14:35:10.976Z,14.62
2023-04-11T14:36:42.824Z,14.53
2023-04-11T14:38:17.750Z,14.44
2023-04-11T14:39:49.514Z,14.27
2023-04-11T14:41:21.350Z,14.08
2023-04-11T14:42:53.153Z,13.89
2023-04-11T14:44:24.997Z,13.69
2023-04-11T14:45:57.870Z,13.51
2023-04-11T14:47:29.744Z,13.29
2023-04-11T14:49:02.242Z,13.05
2023-04-11T14:50:34.158Z,12.82
2023-04-11T14:52:06.200Z,12.58
2023-04-11T14:53:38.011Z,12.31
2023-04-11T14:55:10.193Z,12.01
2023-04-11T14:56:42.514Z,11.73
2023-04-11T14:58:14.337Z,11.43
2023-04-11T14:59:46.488Z,11.12
2023-04-11T15:01:19.177Z,10.84
2023-04-11T15:02:54.980Z,10.56
2023-04-11T15:04:26.936Z,10.31
2023-04-11T15:05:58.785Z,10.08
2023-04-11T15:07:30.940Z,9.89
2023-04-11T15:09:04.568Z,9.69
2023-04-11T15:10:36.400Z,9.53
2023-04-11T15:12:08.184Z,9.38
2023-04-11T15:13:39.999Z,9.24
2023-04-11T15:15:12.478Z,9.15
2023-04-11T15:16:44.371Z,9.03
2023-04-11T15:18:28.204Z,8.91
2023-04-11T15:20:00.024Z,8.85
2023-04-11T15:21:32.562Z,8.76
2023-04-11T15:23:04.363Z,8.71
2023-04-11T15:24:36.121Z,8.68
2023-04-11T15:26:08.729Z,8.66
2023-04-11T15:27:41.417Z,8.65
2023-04-11T15:29:17.047Z,8.61
2023-04-11T15:30:51.174Z,8.65
2023-04-11T15:32:23.024Z,8.65
2023-04-11T15:33:57.500Z,8.73
2023-04-11T15:35:29.720Z,8.78
2023-04-11T15:37:01.530Z,8.91
2023-04-11T15:38:35.610Z,9.07
2023-04-11T15:40:09.713Z,9.22
2023-04-11T15:41:41.650Z,9.41
2023-04-11T15:43:13.590Z,9.60
2023-04-11T15:44:45.850Z,9.78
2023-04-11T15:46:17.696Z,9.95
2023-04-11T15:47:49.804Z,10.10
2023-04-11T15:49:21.708Z,10.23
2023-04-11T15:50:53.520Z,10.32
2023-04-11T15:52:25.341Z,10.40
2023-04-11T15:53:57.290Z,10.48
2023-04-11T15:55:29.291Z,10.54
2023-04-11T15:57:02.559Z,10.58
2023-04-11T15:58:34.345Z,10.61
2023-04-11T16:00:09.749Z,10.63
2023-04-11T16:01:41.956Z,10.63
2023-04-11T16:03:14.094Z,10.64
2023-04-11T16:04:47.843Z,10.63
2023-04-11T16:06:20.643Z,10.62
2023-04-11T16:07:52.481Z,10.62
2023-04-11T16:09:24.338Z,10.61
2023-04-11T16:10:56.282Z,10.60
2023-04-11T16:12:28.208Z,10.59
2023-04-11T16:14:00.028Z,10.62
2023-04-11T16:15:32.249Z,10.67
2023-04-11T16:17:06.642Z,10.73
2023-04-11T16:18:38.835Z,10.80
2023-04-11T16:20:18.370Z,10.88
2023-04-11T16:21:50.365Z,10.96
2023-04-11T16:23:22.169Z,11.03
2023-04-11T16:24:54.579Z,11.08
2023-04-11T16:26:27.228Z,11.12
2023-04-11T16:27:59.281Z,11.18
2023-04-11T16:29:31.091Z,11.20
2023-04-11T16:31:03.146Z,11.23
2023-04-11T16:32:35.138Z,11.23
2023-04-11T16:34:06.971Z,11.23
2023-04-11T16:35:38.827Z,11.23
2023-04-11T16:37:10.669Z,11.20
2023-04-11T16:38:42.477Z,11.17
2023-04-11T16:40:14.536Z,11.14
2023-04-11T16:41:46.348Z,11.09
2023-04-11T16:43:18.146Z,11.05
2023-04-11T16:44:50.114Z,11.01
2023-04-11T16:46:21.984Z,10.93
2023-04-11T16:47:54.048Z,10.91
2023-04-11T16:49:25.867Z,10.91
2023-04-11T16:50:58.099Z,10.90
2023-04-11T16:52:30.064Z,10.89
2023-04-11T16:54:04.101Z,10.89
2023-04-11T16:55:36.138Z,10.88
2023-04-11T16:57:07.997Z,10.87
2023-04-11T16:58:39.812Z,10.86
2023-04-11T17:00:16.057Z,10.84
2023-04-11T17:01:48.094Z,10.84
2023-04-11T17:03:20.423Z,10.81
2023-04-11T17:04:52.519Z,10.79
2023-04-11T17:06:24.340Z,10.76
2023-04-11T17:07:56.251Z,10.72
2023-04-11T17:09:28.082Z,10.68
2023-04-11T17:11:07.417Z,10.61
2023-04-11T17:12:39.222Z,10.57
2023-04-11T17:14:11.664Z,10.50
2023-04-11T17:15:43.462Z,10.42
2023-04-11T17:17:15.361Z,10.35
2023-04-11T17:18:47.306Z,10.28
2023-04-11T17:20:19.599Z,10.21
2023-04-11T17:21:51.405Z,10.12
2023-04-11T17:23:35.187Z,10.06
2023-04-11T17:25:16.222Z,9.98
2023-04-11T17:26:48.017Z,9.87
2023-04-11T17:28:20.798Z,9.79
2023-04-11T17:29:52.864Z,9.70
2023-04-11T17:31:27.777Z,9.61
2023-04-11T17:33:00.201Z,9.52
2023-04-11T17:34:32.100Z,9.40
2023-04-11T17:36:05.391Z,9.30
2023-04-11T17:37:37.242Z,9.17
2023-04-11T17:39:11.576Z,9.07
2023-04-11T17:40:43.633Z,8.95
2023-04-11T17:42:15.471Z,8.83
2023-04-11T17:43:47.270Z,8.72
2023-04-11T17:45:19.799Z,8.60
2023-04-11T17:46:51.893Z,8.47
2023-04-11T17:48:24.241Z,8.36
2023-04-11T17:49:56.990Z,8.23
2023-04-11T17:51:29.397Z,8.10
2023-04-11T17:53:01.912Z,7.98
2023-04-11T17:54:34.207Z,7.84
2023-04-11T17:56:06.409Z,7.73
2023-04-11T17:57:38.921Z,7.60
2023-04-11T17:59:11.843Z,7.47
2023-04-11T18:00:54.852Z,7.35
2023-04-11T18:02:29.492Z,7.23
2023-04-11T18:04:07.734Z,7.11
2023-04-11T18:05:39.648Z,7.01
2023-04-11T18:07:11.518Z,6.90
2023-04-11T18:08:51.011Z,6.80
2023-04-11T18:10:24.896Z,6.70
2023-04-11T18:11:57.550Z,6.60
2023-04-11T18:13:29.332Z,6.52
2023-04-11T18:15:01.143Z,6.44
2023-04-11T18:16:33.090Z,6.36
2023-04-11T18:18:08.180Z,6.29
2023-04-11T18:19:40.016Z,6.23
2023-04-11T18:21:11.815Z,6.18
2023-04-11T18:22:56.338Z,6.11
2023-04-11T18:24:28.325Z,6.12
2023-04-11T18:26:00.143Z,6.12
2023-04-11T18:27:32.932Z,6.15
2023-04-11T18:29:05.404Z,6.18
2023-04-11T18:30:37.254Z,6.25
2023-04-11T18:32:09.099Z,6.33
2023-04-11T18:33:44.341Z,6.41
2023-04-11T18:35:17.279Z,6.49
2023-04-11T18:36:49.613Z,6.57
2023-04-11T18:38:22.424Z,6.66
2023-04-11T18:39:54.303Z,6.74
2023-04-11T18:41:26.331Z,6.81
2023-04-11T18:42:58.681Z,6.88
2023-04-11T18:44:31.303Z,6.97
2023-04-11T18:46:03.661Z,7.04
2023-04-11T18:47:35.796Z,7.07
2023-04-11T18:49:08.258Z,7.13
2023-04-11T18:50:43.136Z,7.18
2023-04-11T18:52:14.992Z,7.18
2023-04-11T18:53:47.009Z,7.18
2023-04-11T18:55:18.848Z,7.18
2023-04-11T18:58:26.149Z,7.11
2023-04-11T19:00:01.543Z,7.07
2023-04-11T19:01:34.706Z,7.01
2023-04-11T19:03:07.457Z,6.98
2023-04-11T19:04:42.814Z,6.92
2023-04-11T19:06:14.871Z,6.86
2023-04-11T19:07:46.903Z,6.81
2023-04-11T19:09:21.520Z,6.77
2023-04-11T19:10:55.951Z,6.68
2023-04-11T19:12:27.774Z,6.63
2023-04-11T19:14:01.127Z,6.58
2023-04-11T19:15:32.977Z,6.50
2023-04-11T19:17:05.440Z,6.43
2023-04-11T19:18:37.302Z,6.37
2023-04-11T19:20:13.432Z,6.31
2023-04-11T19:21:45.544Z,6.24
2023-04-11T19:23:17.376Z,6.18
2023-04-11T19:24:50.010Z,6.14
2023-04-11T19:26:22.676Z,6.10
2023-04-11T19:27:54.499Z,6.05
2023-04-11T19:29:27.249Z,5.99
2023-04-11T19:30:59.120Z,5.96
2023-04-11T19:32:31.034Z,5.92
2023-04-11T19:34:04.690Z,5.87
2023-04-11T19:35:36.534Z,5.82
2023-04-11T19:37:08.693Z,5.76
2023-04-11T19:38:41.143Z,5.69
2023-04-11T19:40:15.945Z,5.64
2023-04-11T19:41:47.774Z,5.56
2023-04-11T19:43:20.041Z,5.48
2023-04-11T19:44:52.085Z,5.40
2023-04-11T19:46:23.973Z,5.33
2023-04-11T19:47:55.972Z,5.25
2023-04-11T19:49:28.836Z,5.17
2023-04-11T19:51:01.792Z,5.07
2023-04-11T19:52:34.823Z,4.98
2023-04-11T19:54:06.745Z,4.90
2023-04-11T19:55:38.634Z,4.80
2023-04-11T19:57:10.436Z,4.73
2023-04-11T19:58:42.787Z,4.66
2023-04-11T20:00:17.490Z,4.60
2023-04-11T20:01:49.621Z,4.51
2023-04-11T20:03:22.148Z,4.44
2023-04-11T20:04:56.324Z,4.37
2023-04-11T20:06:28.499Z,4.29
2023-04-11T20:08:00.305Z,4.21
2023-04-11T20:09:32.461Z,4.14
2023-04-11T20:11:05.716Z,4.07
2023-04-11T20:12:37.626Z,4.01
2023-04-11T20:14:09.533Z,3.93
2023-04-11T20:15:41.643Z,3.86
2023-04-11T20:17:13.427Z,3.80
2023-04-11T20:18:45.260Z,3.73
2023-04-11T20:20:17.189Z,3.68
2023-04-11T20:21:49.235Z,3.61
2023-04-11T20:23:21.741Z,3.55
2023-04-11T20:24:53.654Z,3.48
2023-04-11T20:26:26.702Z,3.42
2023-04-11T20:27:59.243Z,3.37
2023-04-11T20:29:33.050Z,3.33
2023-04-11T20:31:05.321Z,3.28
2023-04-11T20:32:37.593Z,3.25